Antioch, CA

12:05 AM PDT on October 26, 2014 (GMT -0700)
Mountaire Meadows | Change Station
CLOSE
Current Station
Personal Weather Station
Location: Antioch, CA
Elevation: 128 ft
Nearby Weather Stations

Elev 128 ft 37.99 °N, 121.80 °W | Updated 2 seconds ago

Overcast
Overcast
57.6 °F
Feels Like 57.6 °F
N
0.0
Wind Variable Wind from WNW
Gusts 0.0 mph

Today
High -- | Low -- °F
--% Chance of Precip.
Yesterday
High -- | Low -- °F
Precip. -- in
7:26 AM 6:14 PM
Waxing Crescent, 6% visible
Pressure 30.10 in
Visibility 10.0 miles
Clouds Clear
Dew Point 54 °F
Humidity 88%
Rainfall 0.04 in
Snow Depth Not available.
UV 0 out of 12
Pollen .10 out of 12
Ozone Good
PM2.5 Good
Flu Activity Sporadic
METAR KCCR 260653Z 26003KT 10SM CLR 14/12 A3014 RMK AO2 RAB18E28 SLP191 P0000 T01440122 $

More Conditions Fewer Conditions

Pressure 30.10 in
Visibility 10.0 miles
Clouds Clear
Dew Point 54 °F
Humidity 88%
Rainfall 0.04 in
Snow Depth Not available.
UV 0 out of 12
Pollen .10 out of 12
Ozone Good
PM2.5 Good
Flu Activity Sporadic
METAR KCCR 260653Z 26003KT 10SM CLR 14/12 A3014 RMK AO2 RAB18E28 SLP191 P0000 T01440122 $

More Conditions Fewer Conditions

10-Day Weather Forecast

Almanac

Astronomy

Oct. 26, 2014 Rise Set
Actual Time 7:26 AM PDT 6:14 PM PDT
Civil Twilight 6:59 AM PDT 6:41 PM PDT
Nautical Twilight 6:28 AM PDT 7:12 PM PDT
Astronomical Twilight 5:58 AM PDT 7:43 PM PDT
Moon 10:08 AM PDT 8:32 PM PDT
Length of Visible Light 11h 42m
Length of Day
10h 48m
Tomorrow will be 2m 13s shorter.
Waxing Crescent, 6% of the Moon is Illuminated
Today
Waxing Crescent
Oct 30
First Quarter
Nov 6
Full
Nov 14
Last Quarter
Nov 22
New

Community

WunderPhotos

Upload Photos

1,765,115 photos uploaded!

Nearby

Air Quality

  Air Quality AQ Index Pollutant
Yesterday Good
OZONE
Yesterday Good
PM2.5
Current Good
PM2.5
Current Good
OZONE
Saturday Good
OZONE
Sunday Good
OZONE
Monday Good
PM2.5
Tuesday Good
PM2.5
Wednesday Good
PM2.5

Snow Depth

Station Depth Elevation
Carson Pass 1 in 8500 ft
Blue Lakes 0 in 8000 ft
Echo Peak 3 in 7800 ft
Rubicon #2 1 in 7500 ft
Fallen Leaf 0 in 6300 ft

Earthquake Activity

City Distance Mag. Time & Date
Antioch, California 4 miles 2.7 6:42 AM PDT
2014-10-25
Deer Park, California 51 miles 2.8 6:40 AM PDT
2014-10-25
Minimum magnitude displayed is 2.5.

Coastal Water Temperatures

Place Temperature
San Francisco, CA 64.0 °F
Richmond, CA 64.9 °F
Port Chicago, CA 66.0 °F

Nearby Weather Stations